createdAt,value
2018-03-11T00:00:53.552Z,11.03
2018-03-11T00:03:20.181Z,10.30
2018-03-11T00:05:46.887Z,10.27
2018-03-11T00:08:13.536Z,9.53
2018-03-11T00:10:40.162Z,11.53
2018-03-11T00:13:06.911Z,11.57
2018-03-11T00:15:33.692Z,11.40
2018-03-11T00:18:00.431Z,12.20
2018-03-11T00:20:27.209Z,12.27
2018-03-11T00:22:53.905Z,11.80
2018-03-11T00:25:20.516Z,11.43
2018-03-11T00:27:47.299Z,12.07
2018-03-11T00:30:14.864Z,11.40
2018-03-11T00:32:41.661Z,10.60
2018-03-11T00:35:08.246Z,10.27
2018-03-11T00:37:34.914Z,9.33
2018-03-11T00:40:01.527Z,10.73
2018-03-11T00:42:28.319Z,9.80
2018-03-11T00:44:54.927Z,10.13
2018-03-11T00:47:21.698Z,10.03
2018-03-11T00:49:48.509Z,10.07
2018-03-11T00:52:15.179Z,11.00
2018-03-11T00:54:42.064Z,10.87
2018-03-11T00:57:08.849Z,10.60
2018-03-11T00:59:35.612Z,11.07
2018-03-11T01:02:02.972Z,9.60
2018-03-11T01:04:29.667Z,10.60
2018-03-11T01:06:57.039Z,11.70
2018-03-11T01:09:23.743Z,10.70
2018-03-11T01:11:50.475Z,10.20
2018-03-11T01:14:17.072Z,11.97
2018-03-11T01:16:43.864Z,11.03
2018-03-11T01:19:10.659Z,14.20
2018-03-11T01:21:37.369Z,11.10
2018-03-11T01:24:04.788Z,10.50
2018-03-11T01:26:31.894Z,10.47
2018-03-11T01:29:01.420Z,10.60
2018-03-11T01:31:31.688Z,10.70
2018-03-11T01:33:58.574Z,12.10
2018-03-11T01:36:26.080Z,11.57
2018-03-11T01:38:57.610Z,12.00
2018-03-11T01:41:24.710Z,11.80
2018-03-11T01:43:51.402Z,12.60
2018-03-11T01:46:18.181Z,12.90
2018-03-11T01:48:44.839Z,14.33
2018-03-11T01:51:11.482Z,12.80
2018-03-11T01:53:39.004Z,12.60
2018-03-11T01:56:05.711Z,12.50
2018-03-11T01:58:32.404Z,11.47
2018-03-11T02:00:59.005Z,11.77
2018-03-11T02:03:25.699Z,15.13
2018-03-11T02:05:52.324Z,15.13
2018-03-11T02:08:18.972Z,11.10
2018-03-11T02:10:45.653Z,11.77
2018-03-11T02:13:12.342Z,11.47
2018-03-11T02:15:39.024Z,11.07
2018-03-11T02:18:05.700Z,11.33
2018-03-11T02:20:33.086Z,12.30
2018-03-11T02:22:59.714Z,12.77
2018-03-11T02:25:26.377Z,11.27
2018-03-11T02:27:52.988Z,12.40
2018-03-11T02:30:19.680Z,13.30
2018-03-11T02:32:47.022Z,12.20
2018-03-11T02:35:13.680Z,11.77
2018-03-11T02:37:40.287Z,10.60
2018-03-11T02:40:06.999Z,13.90
2018-03-11T02:42:33.643Z,14.30
2018-03-11T02:45:00.343Z,11.63
2018-03-11T02:47:26.961Z,13.00
2018-03-11T02:49:53.602Z,13.23
2018-03-11T02:52:20.189Z,15.20
2018-03-11T02:54:46.842Z,13.57
2018-03-11T02:57:13.520Z,14.10
2018-03-11T02:59:40.181Z,16.27
2018-03-11T03:02:06.864Z,13.63
2018-03-11T03:04:33.521Z,13.60
2018-03-11T03:07:01.270Z,18.43
2018-03-11T03:09:27.891Z,14.63
2018-03-11T03:11:55.560Z,13.37
2018-03-11T03:14:22.297Z,12.70
2018-03-11T03:16:48.978Z,14.20
2018-03-11T03:19:15.667Z,14.47
2018-03-11T03:21:43.012Z,12.77
2018-03-11T03:24:09.662Z,15.77
2018-03-11T03:26:36.346Z,13.97
2018-03-11T03:29:04.510Z,12.30
2018-03-11T03:31:31.157Z,14.43
2018-03-11T03:33:57.905Z,14.97
2018-03-11T03:36:24.591Z,11.70
2018-03-11T03:38:51.187Z,14.37
2018-03-11T03:41:17.779Z,14.17
2018-03-11T03:43:44.447Z,13.57
2018-03-11T03:46:11.100Z,12.57
2018-03-11T03:48:37.773Z,12.60
2018-03-11T03:51:04.483Z,16.13
2018-03-11T03:53:31.144Z,19.70
2018-03-11T03:55:58.643Z,16.53
2018-03-11T03:58:25.279Z,19.10
2018-03-11T04:00:51.947Z,12.50
2018-03-11T04:03:18.696Z,11.77
2018-03-11T04:05:45.340Z,12.63
2018-03-11T04:08:12.093Z,13.30
2018-03-11T04:10:38.743Z,13.20
2018-03-11T04:13:05.381Z,12.10
2018-03-11T04:15:32.021Z,17.43
2018-03-11T04:17:58.710Z,15.17
2018-03-11T04:20:25.495Z,14.20
2018-03-11T04:22:52.156Z,14.70
2018-03-11T04:25:18.819Z,12.23
2018-03-11T04:27:45.459Z,15.60
2018-03-11T04:30:12.123Z,11.73
2018-03-11T04:32:38.763Z,12.60
2018-03-11T04:35:05.510Z,13.53
2018-03-11T04:37:32.240Z,16.90
2018-03-11T04:39:58.878Z,15.03
2018-03-11T04:42:25.485Z,15.40
2018-03-11T04:44:52.103Z,13.07
2018-03-11T04:47:18.695Z,13.82
2018-03-11T04:49:45.391Z,13.43
2018-03-11T04:52:12.139Z,14.87
2018-03-11T04:54:38.783Z,13.30
2018-03-11T04:57:05.477Z,15.50
2018-03-11T04:59:32.187Z,14.83
2018-03-11T05:01:58.842Z,19.23
2018-03-11T05:04:25.492Z,16.73
2018-03-11T05:06:52.238Z,18.00
2018-03-11T05:09:18.932Z,17.33
2018-03-11T05:11:45.555Z,18.47
2018-03-11T05:14:12.133Z,19.00
2018-03-11T05:16:38.797Z,18.13
2018-03-11T05:19:05.456Z,18.80
2018-03-11T05:21:32.156Z,17.43
2018-03-11T05:23:58.877Z,17.27
2018-03-11T05:26:25.620Z,18.73
2018-03-11T05:28:52.252Z,16.73
2018-03-11T05:31:18.959Z,17.60
2018-03-11T05:33:46.306Z,18.93
2018-03-11T05:36:13.367Z,18.10
2018-03-11T05:38:39.996Z,18.17
2018-03-11T05:41:06.741Z,21.03
2018-03-11T05:43:33.383Z,23.10
2018-03-11T05:46:00.100Z,25.30
2018-03-11T05:48:26.814Z,24.27
2018-03-11T05:50:53.483Z,21.33
2018-03-11T05:53:20.837Z,22.00
2018-03-11T05:55:47.444Z,21.40
2018-03-11T05:58:14.057Z,20.93
2018-03-11T06:00:40.707Z,23.73
2018-03-11T06:03:07.387Z,19.77
2018-03-11T06:05:34.057Z,22.27
2018-03-11T06:08:00.746Z,23.40
2018-03-11T06:10:27.446Z,24.53
2018-03-11T06:12:54.160Z,29.77
2018-03-11T06:15:20.831Z,25.60
2018-03-11T06:17:48.240Z,24.93
2018-03-11T06:20:14.904Z,19.57
2018-03-11T06:22:41.546Z,24.90
2018-03-11T06:25:08.236Z,24.00
2018-03-11T06:27:34.917Z,25.53
2018-03-11T06:30:01.575Z,26.37
2018-03-11T06:32:28.218Z,27.10
2018-03-11T06:34:54.876Z,29.20
2018-03-11T06:37:22.314Z,26.43
2018-03-11T06:39:49.025Z,25.07
2018-03-11T06:42:15.695Z,22.53
2018-03-11T06:44:42.282Z,26.80
2018-03-11T06:47:08.936Z,24.97
2018-03-11T06:49:35.587Z,26.83
2018-03-11T06:52:03.996Z,28.60
2018-03-11T06:54:30.656Z,24.70
2018-03-11T06:56:57.323Z,26.60
2018-03-11T06:59:24.023Z,26.90
2018-03-11T07:01:51.358Z,34.17
2018-03-11T07:04:18.024Z,27.13
2018-03-11T07:06:44.722Z,32.20
2018-03-11T07:09:11.351Z,31.07
2018-03-11T07:11:37.994Z,30.50
2018-03-11T07:14:04.951Z,25.60
2018-03-11T07:16:31.608Z,27.80
2018-03-11T07:18:58.438Z,27.20
2018-03-11T07:21:25.020Z,29.80
2018-03-11T07:23:51.809Z,32.43
2018-03-11T07:26:18.466Z,24.10
2018-03-11T07:28:45.080Z,27.17
2018-03-11T07:31:11.723Z,28.13
2018-03-11T07:33:38.370Z,28.97
2018-03-11T07:36:05.083Z,28.47
2018-03-11T07:38:31.710Z,29.27
2018-03-11T07:40:58.368Z,27.73
2018-03-11T07:43:25.081Z,29.27
2018-03-11T07:45:51.752Z,30.10
2018-03-11T07:48:18.411Z,29.90
2018-03-11T07:50:45.171Z,29.47
2018-03-11T07:53:11.962Z,36.67
2018-03-11T07:55:38.702Z,34.10
2018-03-11T07:58:05.487Z,30.80
2018-03-11T08:00:32.182Z,37.63
2018-03-11T08:02:59.556Z,29.33
2018-03-11T08:05:26.223Z,31.90
2018-03-11T08:07:52.867Z,26.70
2018-03-11T08:10:19.541Z,15.10
2018-03-11T08:12:46.247Z,9.87
2018-03-11T08:15:12.827Z,8.70
2018-03-11T08:17:39.481Z,8.90
2018-03-11T08:20:06.203Z,7.83
2018-03-11T08:22:32.815Z,6.40
2018-03-11T08:24:59.434Z,6.50
2018-03-11T08:27:26.173Z,6.70
2018-03-11T08:29:52.788Z,10.00
2018-03-11T08:32:19.532Z,5.77
2018-03-11T08:34:46.108Z,5.73
2018-03-11T08:37:12.776Z,6.30
2018-03-11T08:39:39.493Z,6.63
2018-03-11T08:42:06.103Z,6.60
2018-03-11T08:44:32.734Z,5.57
2018-03-11T08:46:59.367Z,4.97
2018-03-11T08:49:25.961Z,5.40
2018-03-11T08:51:52.671Z,5.80
2018-03-11T08:54:19.329Z,4.90
2018-03-11T08:56:46.135Z,4.60
2018-03-11T08:59:12.800Z,6.30
2018-03-11T09:01:40.223Z,5.80
2018-03-11T09:04:06.852Z,5.80
2018-03-11T09:06:33.598Z,4.50
2018-03-11T09:09:00.532Z,4.80
2018-03-11T09:11:28.375Z,5.47
2018-03-11T09:13:55.736Z,4.47
2018-03-11T09:16:22.388Z,7.33
2018-03-11T09:18:49.018Z,14.03
2018-03-11T09:21:15.624Z,3.87
2018-03-11T09:23:42.273Z,4.30
2018-03-11T09:26:08.954Z,5.07
2018-03-11T09:28:35.529Z,3.73
2018-03-11T09:31:02.260Z,4.00
2018-03-11T09:33:28.850Z,6.17
2018-03-11T09:35:55.518Z,3.93
2018-03-11T09:38:22.150Z,3.87
2018-03-11T09:40:48.816Z,4.77
2018-03-11T09:43:16.183Z,3.90
2018-03-11T09:45:42.754Z,3.87
2018-03-11T09:48:09.368Z,4.70
2018-03-11T09:50:35.948Z,5.83
2018-03-11T09:53:03.161Z,4.70
2018-03-11T09:55:29.839Z,4.40
2018-03-11T09:57:56.467Z,4.83
2018-03-11T10:00:23.091Z,5.37
2018-03-11T10:02:49.721Z,4.57
2018-03-11T10:05:16.322Z,4.67
2018-03-11T10:07:42.974Z,4.80
2018-03-11T10:10:09.605Z,3.90
2018-03-11T10:12:36.209Z,4.30
2018-03-11T10:15:03.647Z,4.30
2018-03-11T10:17:30.258Z,4.93
2018-03-11T10:19:56.938Z,3.97
2018-03-11T10:22:23.581Z,4.17
2018-03-11T10:24:50.220Z,6.30
2018-03-11T10:27:16.871Z,3.43
2018-03-11T10:29:43.523Z,3.70
2018-03-11T10:32:10.164Z,4.10
2018-03-11T10:34:37.544Z,4.77
2018-03-11T10:37:04.997Z,3.80
2018-03-11T10:39:32.380Z,3.07
2018-03-11T10:41:59.028Z,3.10
2018-03-11T10:44:26.441Z,4.30
2018-03-11T10:46:53.126Z,5.20
2018-03-11T10:49:19.709Z,4.90
2018-03-11T10:51:47.060Z,4.23
2018-03-11T10:54:14.469Z,4.00
2018-03-11T10:56:41.151Z,3.63
2018-03-11T10:59:07.863Z,5.47
2018-03-11T11:01:41.608Z,3.83
2018-03-11T11:04:11.093Z,3.63
2018-03-11T11:06:37.942Z,3.50
2018-03-11T11:09:05.392Z,2.90
2018-03-11T11:11:32.804Z,3.67
2018-03-11T11:13:59.529Z,3.57
2018-03-11T11:16:26.169Z,2.90
2018-03-11T11:18:52.801Z,2.97
2018-03-11T11:21:19.623Z,4.50
2018-03-11T11:23:46.313Z,3.50
2018-03-11T11:26:13.493Z,3.40
2018-03-11T11:28:40.897Z,3.00
2018-03-11T11:31:07.661Z,2.87
2018-03-11T11:33:34.459Z,3.40
2018-03-11T11:36:01.069Z,4.57
2018-03-11T11:38:27.721Z,3.07
2018-03-11T11:40:54.368Z,4.53
2018-03-11T11:43:21.022Z,5.90
2018-03-11T11:45:47.808Z,7.63
2018-03-11T11:48:14.604Z,3.30
2018-03-11T11:50:41.357Z,3.30
2018-03-11T11:53:08.092Z,3.00
2018-03-11T11:55:35.499Z,2.83
2018-03-11T11:58:02.194Z,3.77
2018-03-11T12:00:28.934Z,4.50
2018-03-11T12:02:55.540Z,5.40
2018-03-11T12:05:22.325Z,2.73
2018-03-11T12:07:49.052Z,3.30
2018-03-11T12:10:15.693Z,6.97
2018-03-11T12:12:42.359Z,3.33
2018-03-11T12:15:09.011Z,3.60
2018-03-11T12:17:35.736Z,5.00
2018-03-11T12:20:02.682Z,3.77
2018-03-11T12:22:29.828Z,2.80
2018-03-11T12:24:56.596Z,3.47
2018-03-11T12:27:23.353Z,4.90
2018-03-11T12:29:51.245Z,3.20
2018-03-11T12:32:18.092Z,2.90
2018-03-11T12:34:45.110Z,2.37
2018-03-11T12:37:12.429Z,2.50
2018-03-11T12:39:41.234Z,2.33
2018-03-11T12:42:08.372Z,2.10
2018-03-11T12:44:36.790Z,2.27
2018-03-11T12:47:05.316Z,1.97
2018-03-11T12:49:34.217Z,2.50
2018-03-11T12:52:08.385Z,2.63
2018-03-11T12:54:36.050Z,1.70
2018-03-11T12:57:03.885Z,5.23
2018-03-11T12:59:31.420Z,2.00
2018-03-11T13:01:59.030Z,3.77
2018-03-11T13:04:26.612Z,1.23
2018-03-11T13:06:54.808Z,1.53
2018-03-11T13:09:22.435Z,1.70
2018-03-11T13:11:50.121Z,1.83
2018-03-11T13:14:17.982Z,1.37
2018-03-11T13:16:45.581Z,1.53
2018-03-11T13:19:14.070Z,1.97
2018-03-11T13:21:42.674Z,3.77
2018-03-11T13:24:14.042Z,3.67
2018-03-11T13:26:42.053Z,3.23
2018-03-11T13:29:10.542Z,2.30
2018-03-11T13:31:38.238Z,1.80
2018-03-11T13:34:23.137Z,1.80
2018-03-11T13:36:50.678Z,2.10
2018-03-11T13:39:36.334Z,3.13
2018-03-11T13:42:04.297Z,1.60
2018-03-11T13:44:31.102Z,1.60
2018-03-11T13:47:10.797Z,1.53
2018-03-11T13:49:37.761Z,1.37
2018-03-11T13:52:22.865Z,1.93
2018-03-11T13:54:50.329Z,2.60
2018-03-11T14:22:23.494Z,1.60
2018-03-11T14:24:50.462Z,2.40
2018-03-11T14:27:17.550Z,1.77
2018-03-11T14:29:52.267Z,1.80
2018-03-11T14:32:20.641Z,1.30
2018-03-11T14:34:48.376Z,1.87
2018-03-11T14:39:48.249Z,1.80
2018-03-11T14:42:15.106Z,1.77
2018-03-11T14:44:41.852Z,2.07
2018-03-11T14:47:08.533Z,1.63
2018-03-11T14:49:35.310Z,2.83
2018-03-11T14:52:02.757Z,1.57
2018-03-11T14:54:29.410Z,1.70
2018-03-11T14:56:56.065Z,1.50
2018-03-11T14:59:22.792Z,1.40
2018-03-11T15:01:50.534Z,1.40
2018-03-11T15:04:17.513Z,1.20
2018-03-11T15:06:45.121Z,1.73
2018-03-11T15:09:12.702Z,1.10
2018-03-11T15:11:39.661Z,1.33
2018-03-11T15:14:06.568Z,1.97
2018-03-11T15:16:33.513Z,1.63
2018-03-11T15:19:00.743Z,1.90
2018-03-11T15:21:30.125Z,1.70
2018-03-11T15:24:00.669Z,1.90
2018-03-11T15:26:27.651Z,1.73
2018-03-11T15:28:55.141Z,1.80
2018-03-11T15:31:22.073Z,1.67
2018-03-11T15:33:49.446Z,2.83
2018-03-11T15:36:17.456Z,1.60
2018-03-11T15:38:44.420Z,3.00
2018-03-11T15:41:11.617Z,2.17
2018-03-11T15:43:39.101Z,1.60
2018-03-11T15:46:07.070Z,1.50
2018-03-11T15:48:34.041Z,1.30
2018-03-11T15:51:06.717Z,2.33
2018-03-11T15:53:33.316Z,2.30
2018-03-11T15:55:59.960Z,1.50
2018-03-11T15:58:26.690Z,2.33
2018-03-11T16:00:53.429Z,2.50
2018-03-11T16:03:20.085Z,1.23
2018-03-11T16:05:46.783Z,1.23
2018-03-11T16:08:14.121Z,1.00
2018-03-11T16:10:40.750Z,1.30
2018-03-11T16:13:07.503Z,1.70
2018-03-11T16:15:34.130Z,1.30
2018-03-11T16:18:00.850Z,1.60
2018-03-11T16:20:27.486Z,2.00
2018-03-11T16:22:54.081Z,1.47
2018-03-11T16:25:20.712Z,1.43
2018-03-11T16:27:47.310Z,1.37
2018-03-11T16:30:13.950Z,1.93
2018-03-11T16:32:40.645Z,2.87
2018-03-11T16:35:07.397Z,1.60
2018-03-11T16:37:34.090Z,1.47
2018-03-11T16:40:00.802Z,2.10
2018-03-11T16:42:28.189Z,2.17
2018-03-11T16:44:54.821Z,1.60
2018-03-11T16:47:21.634Z,1.23
2018-03-11T16:49:48.306Z,1.53
2018-03-11T16:52:14.986Z,3.00
2018-03-11T16:54:42.578Z,2.40
2018-03-11T16:57:09.277Z,1.67
2018-03-11T16:59:36.160Z,1.50
2018-03-11T17:02:04.402Z,1.80
2018-03-11T17:04:31.109Z,2.63
2018-03-11T17:06:59.036Z,1.93
2018-03-11T17:09:25.719Z,1.53
2018-03-11T17:11:52.488Z,1.60
2018-03-11T17:14:19.560Z,2.90
2018-03-11T17:16:46.408Z,1.50
2018-03-11T17:19:13.442Z,1.70
2018-03-11T17:21:40.204Z,1.57
2018-03-11T17:24:07.032Z,1.60
2018-03-11T17:26:33.803Z,1.90
2018-03-11T17:29:01.102Z,2.33
2018-03-11T17:31:28.027Z,3.37
2018-03-11T17:33:54.924Z,2.00
2018-03-11T17:36:21.658Z,3.70
2018-03-11T17:38:49.377Z,2.00
2018-03-11T17:41:16.262Z,2.27
2018-03-11T17:43:43.914Z,2.13
2018-03-11T17:46:11.683Z,1.57
2018-03-11T17:48:38.965Z,1.90
2018-03-11T17:51:06.038Z,1.73
2018-03-11T17:53:33.997Z,1.90
2018-03-11T17:56:02.254Z,1.63
2018-03-11T17:58:29.229Z,2.30
2018-03-11T18:00:56.028Z,1.80
2018-03-11T18:03:23.188Z,2.80
2018-03-11T18:05:49.997Z,2.90
2018-03-11T18:08:16.797Z,2.63
2018-03-11T18:10:43.571Z,2.10
2018-03-11T18:13:10.366Z,2.53
2018-03-11T18:15:37.537Z,2.93
2018-03-11T18:18:05.264Z,2.93
2018-03-11T18:20:32.493Z,3.40
2018-03-11T18:22:59.835Z,4.50
2018-03-11T18:25:27.178Z,3.00
2018-03-11T18:27:55.371Z,2.70
2018-03-11T18:30:22.892Z,3.77
2018-03-11T18:32:49.952Z,3.70
2018-03-11T18:35:16.985Z,5.60
2018-03-11T18:37:44.037Z,5.67
2018-03-11T18:40:10.955Z,5.43
2018-03-11T18:42:38.047Z,10.30
2018-03-11T18:45:05.986Z,7.80
2018-03-11T18:47:33.440Z,7.57
2018-03-11T18:50:01.347Z,8.33
2018-03-11T18:52:29.524Z,9.60
2018-03-11T18:54:56.792Z,9.33
2018-03-11T18:57:24.458Z,7.13
2018-03-11T18:59:52.371Z,8.10
2018-03-11T19:02:19.763Z,5.77
2018-03-11T19:04:47.572Z,6.73
2018-03-11T19:07:15.377Z,7.90
2018-03-11T19:09:43.691Z,5.57
2018-03-11T19:12:11.839Z,8.20
2018-03-11T19:14:40.214Z,7.23
2018-03-11T19:17:25.266Z,12.17
2018-03-11T19:19:54.176Z,7.17
2018-03-11T19:22:21.482Z,6.70
2018-03-11T19:24:49.992Z,6.67
2018-03-11T19:27:18.449Z,6.00
2018-03-11T19:29:45.993Z,7.23
2018-03-11T19:32:13.594Z,5.73
2018-03-11T19:34:41.532Z,7.43
2018-03-11T19:37:09.620Z,5.37
2018-03-11T19:39:37.038Z,5.23
2018-03-11T19:42:06.167Z,8.93
2018-03-11T19:44:34.751Z,5.20
2018-03-11T19:47:02.967Z,6.43
2018-03-11T19:49:33.641Z,6.00
2018-03-11T19:52:01.576Z,6.43
2018-03-11T19:54:29.125Z,6.27
2018-03-11T19:56:57.591Z,7.33
2018-03-11T19:59:28.080Z,6.40
2018-03-11T20:01:59.277Z,6.20
2018-03-11T20:04:26.656Z,5.93
2018-03-11T20:07:01.184Z,6.40
2018-03-11T20:09:38.538Z,5.37
2018-03-11T20:12:07.623Z,6.03
2018-03-11T20:14:35.859Z,5.20
2018-03-11T20:17:04.233Z,7.60
2018-03-11T20:19:31.930Z,5.50
2018-03-11T20:21:59.961Z,5.80
2018-03-11T20:24:28.197Z,5.13
2018-03-11T20:26:56.942Z,10.00
2018-03-11T20:29:25.410Z,5.53
2018-03-11T20:31:54.697Z,5.20
2018-03-11T20:34:24.110Z,5.80
2018-03-11T20:36:52.531Z,5.30
2018-03-11T20:39:20.435Z,12.50
2018-03-11T20:41:50.302Z,5.97
2018-03-11T20:44:18.816Z,6.30
2018-03-11T20:46:47.180Z,5.27
2018-03-11T20:49:15.542Z,4.90
2018-03-11T20:51:43.555Z,4.97
2018-03-11T20:54:11.761Z,4.53
2018-03-11T20:56:40.163Z,4.87
2018-03-11T20:59:08.937Z,5.80
2018-03-11T21:01:37.446Z,4.70
2018-03-11T21:04:06.661Z,6.90
2018-03-11T21:06:35.689Z,5.97
2018-03-11T21:09:05.254Z,7.87
2018-03-11T21:11:33.772Z,6.37
2018-03-11T21:14:01.399Z,6.57
2018-03-11T21:16:29.535Z,5.90
2018-03-11T21:18:57.077Z,5.97
2018-03-11T21:21:26.239Z,6.00
2018-03-11T21:23:53.126Z,6.73
2018-03-11T21:26:21.264Z,4.97
2018-03-11T21:28:48.440Z,5.10
2018-03-11T21:31:15.282Z,5.50
2018-03-11T21:33:42.436Z,6.70
2018-03-11T21:36:09.528Z,4.93
2018-03-11T21:38:36.349Z,5.63
2018-03-11T21:41:03.990Z,5.50
2018-03-11T21:43:30.813Z,6.20
2018-03-11T21:45:58.391Z,7.70
2018-03-11T21:48:25.120Z,5.50
2018-03-11T21:50:51.931Z,5.60
2018-03-11T21:53:18.746Z,4.37
2018-03-11T21:55:45.546Z,5.67
2018-03-11T21:58:12.265Z,6.93
2018-03-11T22:00:38.954Z,4.70
2018-03-11T22:06:15.612Z,5.03
2018-03-11T22:11:54.024Z,4.93
2018-03-11T22:14:21.248Z,4.93
2018-03-11T22:16:48.201Z,6.57
2018-03-11T22:19:15.539Z,4.50
2018-03-11T22:21:42.825Z,6.03
2018-03-11T22:24:09.629Z,5.73
2018-03-11T22:26:36.342Z,4.80
2018-03-11T22:29:03.642Z,5.17
2018-03-11T22:31:30.446Z,4.50
2018-03-11T22:33:57.196Z,3.80
2018-03-11T22:36:24.052Z,4.53
2018-03-11T22:38:50.879Z,4.57
2018-03-11T22:41:17.602Z,5.00
2018-03-11T22:43:44.346Z,5.10
2018-03-11T22:46:10.972Z,4.60
2018-03-11T22:48:37.909Z,4.97
2018-03-11T22:51:05.207Z,4.13
2018-03-11T22:53:32.131Z,5.10
2018-03-11T22:55:58.862Z,4.33
2018-03-11T22:58:25.720Z,5.30
2018-03-11T23:00:52.431Z,5.17
2018-03-11T23:03:19.248Z,4.60
2018-03-11T23:05:45.966Z,4.20
2018-03-11T23:08:12.667Z,4.47
2018-03-11T23:10:39.370Z,3.53
2018-03-11T23:13:06.250Z,4.33
2018-03-11T23:15:33.075Z,4.73
2018-03-11T23:17:59.932Z,4.33
2018-03-11T23:20:26.761Z,5.80
2018-03-11T23:22:54.149Z,5.53
2018-03-11T23:25:20.823Z,5.33
2018-03-11T23:27:47.614Z,5.73
2018-03-11T23:30:14.592Z,5.30
2018-03-11T23:32:41.708Z,5.30
2018-03-11T23:35:08.907Z,5.10
2018-03-11T23:37:35.578Z,5.40
2018-03-11T23:40:02.232Z,8.10
2018-03-11T23:42:28.932Z,5.80
2018-03-11T23:44:55.567Z,4.57
2018-03-11T23:47:22.225Z,4.90
2018-03-11T23:49:48.871Z,4.93
2018-03-11T23:52:15.633Z,6.03
2018-03-11T23:54:42.396Z,5.73
2018-03-11T23:57:09.059Z,5.33
2018-03-11T23:59:35.646Z,5.80
